createdAt,value
2019-03-18T00:00:15.444Z,5.35
2019-03-18T00:02:43.985Z,5.30
2019-03-18T00:05:12.488Z,5.31
2019-03-18T00:07:41.328Z,5.30
2019-03-18T00:10:10.144Z,5.28
2019-03-18T00:12:38.916Z,5.29
2019-03-18T00:15:09.118Z,5.35
2019-03-18T00:17:37.738Z,5.31
2019-03-18T00:20:07.962Z,5.33
2019-03-18T00:22:36.515Z,5.38
2019-03-18T00:25:07.008Z,5.38
2019-03-18T00:27:35.575Z,5.33
2019-03-18T00:30:05.791Z,5.31
2019-03-18T00:32:34.256Z,5.33
2019-03-18T00:35:02.758Z,5.27
2019-03-18T00:37:31.400Z,5.27
2019-03-18T00:39:59.880Z,5.30
2019-03-18T00:42:28.322Z,5.27
2019-03-18T00:44:57.155Z,5.25
2019-03-18T00:47:25.603Z,5.25
2019-03-18T00:49:54.143Z,5.29
2019-03-18T00:52:22.599Z,5.23
2019-03-18T00:54:51.155Z,5.17
2019-03-18T00:57:19.754Z,5.12
2019-03-18T00:59:48.521Z,5.08
2019-03-18T01:02:17.033Z,5.09
2019-03-18T01:04:45.576Z,5.12
2019-03-18T01:07:14.306Z,5.07
2019-03-18T01:09:42.770Z,5.00
2019-03-18T01:12:11.271Z,4.89
2019-03-18T01:14:39.727Z,4.83
2019-03-18T01:17:08.199Z,4.74
2019-03-18T01:19:36.725Z,4.65
2019-03-18T01:22:05.180Z,4.65
2019-03-18T01:24:33.693Z,4.59
2019-03-18T01:27:02.160Z,4.48
2019-03-18T01:29:30.621Z,4.45
2019-03-18T01:31:59.149Z,4.44
2019-03-18T01:34:27.803Z,4.38
2019-03-18T01:36:56.248Z,4.34
2019-03-18T01:39:24.810Z,4.29
2019-03-18T01:41:53.271Z,4.30
2019-03-18T01:44:21.994Z,4.23
2019-03-18T01:46:50.622Z,4.21
2019-03-18T01:49:19.095Z,4.22
2019-03-18T01:51:47.651Z,4.16
2019-03-18T01:54:16.113Z,4.18
2019-03-18T01:56:44.571Z,4.24
2019-03-18T01:59:13.029Z,4.22
2019-03-18T02:01:41.488Z,4.07
2019-03-18T02:04:09.921Z,4.06
2019-03-18T02:06:38.354Z,4.07
2019-03-18T02:09:06.989Z,4.06
2019-03-18T02:11:35.572Z,4.12
2019-03-18T02:14:04.090Z,4.11
2019-03-18T02:16:32.613Z,3.99
2019-03-18T02:19:01.151Z,4.00
2019-03-18T02:21:29.685Z,4.03
2019-03-18T02:23:58.165Z,4.03
2019-03-18T02:26:26.992Z,4.03
2019-03-18T02:28:55.492Z,4.00
2019-03-18T02:31:23.993Z,4.00
2019-03-18T02:33:52.610Z,3.97
2019-03-18T02:36:21.412Z,3.96
2019-03-18T02:38:49.925Z,3.96
2019-03-18T02:41:18.505Z,3.89
2019-03-18T02:43:46.969Z,3.86
2019-03-18T02:46:15.492Z,3.86
2019-03-18T02:48:43.958Z,3.84
2019-03-18T02:51:12.498Z,3.83
2019-03-18T02:53:41.273Z,3.82
2019-03-18T02:56:09.731Z,3.79
2019-03-18T02:58:38.288Z,3.87
2019-03-18T03:01:06.709Z,3.86
2019-03-18T03:03:37.036Z,3.82
2019-03-18T03:06:05.497Z,3.83
2019-03-18T03:08:34.035Z,3.90
2019-03-18T03:11:02.519Z,3.88
2019-03-18T03:13:30.898Z,3.89
2019-03-18T03:15:59.423Z,3.97
2019-03-18T03:18:28.292Z,3.89
2019-03-18T03:20:56.807Z,3.90
2019-03-18T03:23:25.579Z,3.90
2019-03-18T03:25:54.165Z,3.91
2019-03-18T03:28:22.981Z,3.92
2019-03-18T03:30:51.416Z,3.92
2019-03-18T03:33:20.017Z,3.97
2019-03-18T03:35:48.834Z,3.97
2019-03-18T03:38:17.672Z,4.01
2019-03-18T03:40:46.188Z,4.02
2019-03-18T03:43:15.036Z,3.99
2019-03-18T03:45:43.428Z,4.04
2019-03-18T03:48:12.055Z,4.04
2019-03-18T03:50:40.424Z,4.06
2019-03-18T03:53:09.155Z,4.07
2019-03-18T03:55:37.582Z,4.02
2019-03-18T03:58:06.338Z,4.00
2019-03-18T04:00:34.847Z,3.95
2019-03-18T04:03:03.313Z,3.96
2019-03-18T04:05:31.857Z,3.97
2019-03-18T04:08:00.298Z,3.90
2019-03-18T04:10:28.843Z,3.95
2019-03-18T04:12:57.298Z,3.94
2019-03-18T04:15:25.973Z,3.92
2019-03-18T04:17:54.619Z,3.93
2019-03-18T04:20:23.238Z,3.90
2019-03-18T04:22:51.670Z,3.94
2019-03-18T04:25:20.145Z,3.94
2019-03-18T04:27:48.891Z,3.92
2019-03-18T04:30:17.383Z,3.99
2019-03-18T04:32:45.838Z,3.96
2019-03-18T04:35:14.285Z,3.95
2019-03-18T04:37:42.774Z,3.94
2019-03-18T04:40:11.841Z,3.96
2019-03-18T04:42:40.694Z,3.95
2019-03-18T04:45:09.923Z,3.99
2019-03-18T04:47:38.721Z,4.04
2019-03-18T04:50:11.630Z,4.04
2019-03-18T04:52:40.103Z,4.13
2019-03-18T04:55:09.002Z,4.08
2019-03-18T04:57:37.621Z,4.13
2019-03-18T05:00:08.584Z,4.10
2019-03-18T05:02:37.124Z,4.11
2019-03-18T05:05:05.652Z,4.09
2019-03-18T05:07:34.198Z,4.08
2019-03-18T05:10:02.716Z,4.08
2019-03-18T05:12:31.263Z,4.05
2019-03-18T05:14:59.786Z,4.07
2019-03-18T05:17:28.483Z,4.14
2019-03-18T05:19:57.239Z,4.06
2019-03-18T05:22:25.775Z,4.10
2019-03-18T05:24:54.179Z,4.10
2019-03-18T05:27:22.568Z,4.18
2019-03-18T05:29:51.025Z,4.17
2019-03-18T05:32:19.813Z,4.11
2019-03-18T05:34:48.351Z,4.19
2019-03-18T05:37:16.938Z,4.12
2019-03-18T05:39:45.595Z,4.17
2019-03-18T05:42:14.041Z,4.15
2019-03-18T05:44:42.609Z,4.10
2019-03-18T05:47:11.043Z,4.13
2019-03-18T05:49:39.559Z,4.16
2019-03-18T05:52:08.069Z,4.11
2019-03-18T05:54:36.584Z,4.15
2019-03-18T05:57:05.137Z,4.19
2019-03-18T05:59:33.908Z,4.11
2019-03-18T06:02:02.557Z,4.06
2019-03-18T06:04:30.995Z,4.06
2019-03-18T06:06:59.538Z,4.05
2019-03-18T06:09:27.995Z,4.12
2019-03-18T06:11:56.401Z,4.22
2019-03-18T06:14:24.984Z,4.21
2019-03-18T06:16:53.590Z,4.26
2019-03-18T06:19:22.020Z,4.28
2019-03-18T06:21:50.561Z,4.29
2019-03-18T06:24:19.108Z,4.30
2019-03-18T06:26:47.839Z,4.34
2019-03-18T06:29:16.237Z,4.37
2019-03-18T06:31:44.770Z,4.37
2019-03-18T06:34:13.604Z,4.42
2019-03-18T06:36:42.138Z,4.41
2019-03-18T06:39:10.614Z,4.41
2019-03-18T06:41:39.046Z,4.40
2019-03-18T06:44:07.617Z,4.40
2019-03-18T06:46:36.030Z,4.42
2019-03-18T06:49:04.682Z,4.49
2019-03-18T06:51:33.216Z,4.48
2019-03-18T06:54:01.757Z,4.46
2019-03-18T06:56:30.279Z,4.51
2019-03-18T06:58:58.733Z,4.51
2019-03-18T07:01:27.329Z,4.44
2019-03-18T07:03:55.778Z,4.54
2019-03-18T07:06:24.319Z,4.48
2019-03-18T07:08:52.783Z,4.54
2019-03-18T07:11:21.580Z,4.59
2019-03-18T07:13:50.010Z,4.62
2019-03-18T07:16:18.529Z,4.77
2019-03-18T07:18:46.966Z,4.73
2019-03-18T07:21:15.470Z,4.80
2019-03-18T07:23:44.042Z,4.83
2019-03-18T07:26:12.558Z,4.86
2019-03-18T07:28:41.045Z,4.87
2019-03-18T07:31:09.630Z,4.87
2019-03-18T07:33:38.228Z,4.93
2019-03-18T07:36:06.761Z,5.00
2019-03-18T07:38:35.358Z,5.05
2019-03-18T07:41:04.161Z,5.16
2019-03-18T07:43:32.715Z,5.14
2019-03-18T07:46:01.528Z,5.25
2019-03-18T07:48:31.485Z,5.34
2019-03-18T07:51:00.214Z,5.30
2019-03-18T07:53:28.740Z,5.48
2019-03-18T07:55:57.240Z,5.46
2019-03-18T07:58:25.681Z,5.48
2019-03-18T08:00:54.207Z,5.52
2019-03-18T08:03:22.761Z,5.41
2019-03-18T08:05:51.551Z,5.35
2019-03-18T08:08:20.062Z,5.35
2019-03-18T08:10:48.838Z,5.42
2019-03-18T08:13:17.632Z,5.42
2019-03-18T08:15:46.152Z,5.39
2019-03-18T08:18:14.619Z,5.35
2019-03-18T08:20:43.081Z,5.47
2019-03-18T08:23:11.781Z,5.58
2019-03-18T08:25:40.246Z,5.77
2019-03-18T08:28:08.750Z,5.75
2019-03-18T08:30:37.372Z,5.81
2019-03-18T08:33:05.900Z,5.91
2019-03-18T08:35:34.431Z,5.83
2019-03-18T08:38:03.047Z,5.99
2019-03-18T08:40:31.596Z,6.07
2019-03-18T08:43:00.132Z,6.30
2019-03-18T08:45:28.679Z,6.07
2019-03-18T08:47:57.508Z,6.09
2019-03-18T08:50:26.061Z,5.96
2019-03-18T08:52:54.668Z,6.08
2019-03-18T08:55:23.243Z,6.10
2019-03-18T08:57:51.695Z,6.09
2019-03-18T09:00:20.670Z,6.05
2019-03-18T09:02:49.276Z,6.13
2019-03-18T09:05:18.093Z,5.98
2019-03-18T09:07:46.661Z,6.03
2019-03-18T09:10:15.981Z,5.97
2019-03-18T09:12:44.535Z,6.05
2019-03-18T09:15:13.263Z,6.07
2019-03-18T09:17:42.132Z,6.01
2019-03-18T09:20:14.817Z,5.95
2019-03-18T09:22:43.566Z,6.11
2019-03-18T09:25:12.648Z,6.53
2019-03-18T09:27:41.165Z,6.64
2019-03-18T09:30:20.287Z,6.60
2019-03-18T09:32:48.980Z,6.66
2019-03-18T09:35:17.522Z,6.90
2019-03-18T09:37:46.075Z,6.96
2019-03-18T09:40:15.350Z,7.23
2019-03-18T09:42:43.806Z,7.84
2019-03-18T09:45:16.659Z,7.56
2019-03-18T09:47:45.477Z,7.45
2019-03-18T09:50:14.490Z,7.43
2019-03-18T09:52:42.973Z,7.23
2019-03-18T09:55:11.518Z,6.92
2019-03-18T09:57:40.321Z,6.88
2019-03-18T10:00:17.936Z,6.71
2019-03-18T10:02:46.510Z,6.54
2019-03-18T10:05:15.301Z,6.61
2019-03-18T10:07:44.105Z,6.55
2019-03-18T10:10:14.301Z,6.52
2019-03-18T10:12:42.821Z,6.51
2019-03-18T10:15:16.181Z,6.54
2019-03-18T10:17:44.760Z,6.50
2019-03-18T10:20:13.440Z,6.44
2019-03-18T10:22:41.906Z,6.61
2019-03-18T10:25:10.468Z,6.58
2019-03-18T10:27:38.914Z,6.63
2019-03-18T10:30:14.727Z,6.71
2019-03-18T10:32:43.236Z,6.97
2019-03-18T10:35:11.722Z,7.38
2019-03-18T10:37:40.454Z,7.40
2019-03-18T10:40:11.055Z,7.55
2019-03-18T10:42:39.659Z,7.83
2019-03-18T10:45:13.680Z,7.77
2019-03-18T10:47:42.126Z,7.72
2019-03-18T10:50:12.825Z,7.83
2019-03-18T10:52:41.411Z,7.74
2019-03-18T10:55:10.607Z,7.64
2019-03-18T10:57:39.059Z,7.36
2019-03-18T11:00:13.526Z,7.22
2019-03-18T11:02:44.844Z,7.13
2019-03-18T11:05:12.334Z,7.24
2019-03-18T11:07:40.962Z,7.31
2019-03-18T11:10:13.628Z,7.35
2019-03-18T11:12:42.256Z,7.36
2019-03-18T11:15:16.527Z,7.52
2019-03-18T11:17:45.174Z,7.50
2019-03-18T11:20:14.910Z,7.31
2019-03-18T11:22:43.552Z,7.33
2019-03-18T11:25:13.216Z,7.46
2019-03-18T11:27:41.805Z,7.31
2019-03-18T11:30:17.083Z,7.10
2019-03-18T11:32:45.597Z,6.91
2019-03-18T11:35:14.148Z,7.11
2019-03-18T11:37:42.689Z,7.39
2019-03-18T11:40:16.076Z,7.46
2019-03-18T11:42:44.577Z,8.59
2019-03-18T11:45:14.504Z,8.87
2019-03-18T11:47:45.622Z,9.05
2019-03-18T11:50:18.465Z,8.55
2019-03-18T11:52:46.982Z,8.67
2019-03-18T11:55:21.444Z,8.67
2019-03-18T11:57:50.034Z,8.39
2019-03-18T12:00:19.875Z,8.10
2019-03-18T12:02:48.615Z,8.00
2019-03-18T12:05:19.126Z,8.17
2019-03-18T12:07:47.602Z,8.05
2019-03-18T12:10:17.554Z,8.00
2019-03-18T12:12:46.099Z,8.01
2019-03-18T12:15:17.996Z,8.56
2019-03-18T12:17:46.522Z,10.77
2019-03-18T12:20:24.197Z,12.89
2019-03-18T12:22:45.813Z,15.22
2019-03-18T12:25:14.405Z,16.09
2019-03-18T12:27:43.206Z,15.34
2019-03-18T12:30:17.868Z,13.12
2019-03-18T12:32:46.445Z,13.43
2019-03-18T12:35:15.080Z,13.20
2019-03-18T12:37:43.538Z,12.49
2019-03-18T12:40:15.790Z,12.80
2019-03-18T12:42:44.685Z,11.86
2019-03-18T12:45:15.215Z,12.28
2019-03-18T12:47:43.750Z,11.94
2019-03-18T12:50:14.358Z,12.50
2019-03-18T12:52:42.833Z,11.40
2019-03-18T12:55:11.656Z,10.45
2019-03-18T12:57:40.269Z,9.52
2019-03-18T13:00:34.947Z,8.62
2019-03-18T13:03:03.504Z,8.72
2019-03-18T13:05:32.103Z,9.18
2019-03-18T13:08:00.735Z,10.07
2019-03-18T13:10:29.316Z,11.21
2019-03-18T13:12:59.501Z,11.89
2019-03-18T13:15:28.297Z,12.98
2019-03-18T13:17:56.806Z,13.48
2019-03-18T13:20:25.638Z,14.36
2019-03-18T13:22:55.810Z,14.43
2019-03-18T13:25:24.417Z,14.85
2019-03-18T13:27:52.915Z,14.43
2019-03-18T13:30:22.451Z,12.74
2019-03-18T13:32:53.682Z,11.51
2019-03-18T13:35:22.224Z,10.50
2019-03-18T13:37:50.831Z,10.00
2019-03-18T13:40:19.822Z,9.41
2019-03-18T13:42:48.279Z,9.09
2019-03-18T13:45:23.654Z,8.75
2019-03-18T13:47:54.335Z,8.73
2019-03-18T13:50:23.104Z,8.66
2019-03-18T13:52:51.739Z,8.62
2019-03-18T13:55:20.408Z,8.53
2019-03-18T13:57:49.015Z,8.55
2019-03-18T14:00:21.735Z,8.93
2019-03-18T14:02:50.180Z,10.02
2019-03-18T14:05:18.739Z,11.63
2019-03-18T14:07:59.652Z,12.59
2019-03-18T14:10:21.928Z,11.57
2019-03-18T14:12:50.532Z,10.74
2019-03-18T14:15:25.259Z,10.34
2019-03-18T14:17:53.919Z,10.26
2019-03-18T14:20:27.239Z,10.07
2019-03-18T14:22:55.929Z,10.38
2019-03-18T14:25:26.332Z,10.38
2019-03-18T14:27:54.854Z,10.89
2019-03-18T14:30:23.791Z,11.90
2019-03-18T14:32:52.724Z,13.79
2019-03-18T14:35:22.074Z,13.80
2019-03-18T14:37:50.849Z,13.49
2019-03-18T14:40:25.600Z,12.76
2019-03-18T14:42:54.475Z,11.54
2019-03-18T14:45:23.813Z,12.01
2019-03-18T14:47:52.373Z,13.16
2019-03-18T14:50:21.015Z,12.24
2019-03-18T14:52:49.690Z,10.79
2019-03-18T14:55:21.219Z,9.86
2019-03-18T14:57:50.051Z,9.58
2019-03-18T15:00:20.100Z,11.50
2019-03-18T15:02:48.705Z,13.94
2019-03-18T15:05:18.473Z,14.07
2019-03-18T15:07:47.156Z,14.27
2019-03-18T15:10:18.985Z,13.52
2019-03-18T15:12:47.447Z,14.07
2019-03-18T15:15:17.388Z,14.78
2019-03-18T15:17:45.938Z,13.29
2019-03-18T15:20:17.036Z,12.01
2019-03-18T15:22:45.556Z,10.37
2019-03-18T15:25:21.611Z,9.20
2019-03-18T15:27:50.109Z,8.82
2019-03-18T15:30:20.001Z,8.30
2019-03-18T15:32:48.438Z,7.88
2019-03-18T15:35:17.965Z,7.74
2019-03-18T15:37:46.590Z,7.54
2019-03-18T15:40:17.490Z,7.29
2019-03-18T15:42:46.030Z,7.06
2019-03-18T15:45:20.063Z,6.83
2019-03-18T15:47:48.607Z,7.10
2019-03-18T15:50:18.426Z,6.77
2019-03-18T15:52:46.901Z,6.77
2019-03-18T15:55:15.406Z,6.82
2019-03-18T15:57:43.907Z,6.65
2019-03-18T16:00:18.344Z,6.60
2019-03-18T16:02:46.776Z,6.51
2019-03-18T16:05:15.418Z,6.61
2019-03-18T16:07:44.001Z,6.50
2019-03-18T16:10:14.068Z,6.51
2019-03-18T16:12:42.698Z,6.67
2019-03-18T16:15:15.354Z,6.67
2019-03-18T16:17:45.798Z,6.68
2019-03-18T16:20:24.511Z,6.79
2019-03-18T16:22:53.064Z,6.66
2019-03-18T16:25:23.048Z,6.52
2019-03-18T16:27:51.552Z,6.66
2019-03-18T16:30:21.428Z,6.71
2019-03-18T16:32:49.971Z,6.71
2019-03-18T16:35:18.775Z,6.72
2019-03-18T16:37:47.247Z,6.66
2019-03-18T16:40:22.534Z,6.60
2019-03-18T16:42:50.982Z,6.60
2019-03-18T16:45:20.103Z,6.62
2019-03-18T16:47:48.999Z,6.53
2019-03-18T16:50:21.816Z,6.59
2019-03-18T16:52:50.319Z,6.51
2019-03-18T16:55:18.965Z,6.42
2019-03-18T16:57:47.548Z,6.53
2019-03-18T17:00:19.178Z,6.45
2019-03-18T17:02:48.082Z,6.47
2019-03-18T17:05:16.563Z,6.56
2019-03-18T17:07:45.166Z,6.53
2019-03-18T17:10:14.892Z,6.60
2019-03-18T17:12:43.559Z,6.58
2019-03-18T17:15:15.748Z,6.54
2019-03-18T17:17:44.312Z,6.62
2019-03-18T17:20:16.357Z,6.69
2019-03-18T17:22:49.189Z,6.66
2019-03-18T17:25:17.646Z,6.66
2019-03-18T17:27:46.373Z,6.63
2019-03-18T17:30:19.073Z,6.41
2019-03-18T17:32:49.636Z,6.02
2019-03-18T17:35:18.291Z,5.66
2019-03-18T17:37:47.655Z,5.70
2019-03-18T17:40:17.356Z,5.34
2019-03-18T17:42:45.964Z,5.26
2019-03-18T17:45:15.605Z,4.94
2019-03-18T17:47:44.292Z,4.85
2019-03-18T17:50:15.630Z,4.86
2019-03-18T17:52:44.263Z,4.85
2019-03-18T17:55:18.635Z,4.87
2019-03-18T17:57:47.088Z,4.78
2019-03-18T18:00:23.616Z,4.80
2019-03-18T18:02:52.870Z,4.82
2019-03-18T18:05:21.553Z,4.88
2019-03-18T18:07:50.110Z,4.86
2019-03-18T18:10:18.494Z,4.87
2019-03-18T18:12:46.960Z,4.88
2019-03-18T18:15:15.610Z,4.96
2019-03-18T18:17:44.169Z,4.97
2019-03-18T18:20:16.234Z,5.01
2019-03-18T18:22:44.764Z,5.02
2019-03-18T18:25:14.038Z,5.04
2019-03-18T18:27:43.000Z,5.04
2019-03-18T18:30:16.315Z,4.99
2019-03-18T18:32:44.767Z,5.02
2019-03-18T18:35:13.615Z,5.05
2019-03-18T18:37:42.159Z,5.04
2019-03-18T18:40:21.870Z,5.05
2019-03-18T18:42:50.324Z,5.04
2019-03-18T18:45:21.181Z,5.13
2019-03-18T18:47:49.244Z,5.11
2019-03-18T18:50:17.800Z,5.07
2019-03-18T18:52:46.369Z,5.09
2019-03-18T18:55:15.078Z,5.04
2019-03-18T18:57:43.948Z,5.03
2019-03-18T19:00:19.014Z,4.96
2019-03-18T19:02:47.681Z,4.98
2019-03-18T19:05:18.383Z,4.94
2019-03-18T19:07:47.272Z,4.99
2019-03-18T19:10:17.717Z,4.95
2019-03-18T19:12:46.287Z,4.90
2019-03-18T19:15:22.749Z,4.83
2019-03-18T19:17:51.340Z,4.86
2019-03-18T19:20:19.717Z,4.76
2019-03-18T19:22:48.484Z,4.67
2019-03-18T19:25:17.530Z,4.70
2019-03-18T19:27:47.345Z,4.69
2019-03-18T19:30:22.518Z,4.62
2019-03-18T19:32:51.143Z,4.62
2019-03-18T19:35:19.754Z,4.62
2019-03-18T19:37:48.207Z,4.66
2019-03-18T19:40:18.935Z,4.66
2019-03-18T19:42:47.422Z,4.69
2019-03-18T19:45:16.309Z,4.71
2019-03-18T19:47:44.854Z,4.63
2019-03-18T19:50:16.109Z,4.59
2019-03-18T19:52:44.651Z,4.71
2019-03-18T19:55:13.431Z,4.69
2019-03-18T19:57:42.051Z,4.76
2019-03-18T20:00:13.492Z,4.76
2019-03-18T20:02:42.050Z,4.69
2019-03-18T20:05:15.168Z,4.67
2019-03-18T20:07:41.024Z,4.56
2019-03-18T20:10:14.719Z,4.52
2019-03-18T20:12:43.298Z,4.51
2019-03-18T20:15:13.634Z,4.58
2019-03-18T20:17:42.174Z,4.56
2019-03-18T20:20:24.016Z,4.55
2019-03-18T20:22:51.885Z,4.54
2019-03-18T20:25:22.428Z,4.60
2019-03-18T20:27:51.277Z,4.57
2019-03-18T20:30:21.645Z,4.52
2019-03-18T20:32:50.532Z,4.56
2019-03-18T20:35:22.661Z,4.58
2019-03-18T20:37:52.089Z,4.57
2019-03-18T20:40:21.480Z,4.57
2019-03-18T20:42:50.036Z,4.56
2019-03-18T20:45:19.482Z,4.59
2019-03-18T20:47:48.079Z,4.55
2019-03-18T20:50:20.309Z,4.46
2019-03-18T20:52:48.896Z,4.46
2019-03-18T20:55:17.544Z,4.41
2019-03-18T20:57:46.118Z,4.38
2019-03-18T21:00:24.979Z,4.47
2019-03-18T21:02:53.668Z,4.45
2019-03-18T21:05:24.910Z,4.39
2019-03-18T21:07:52.924Z,4.41
2019-03-18T21:10:22.294Z,4.44
2019-03-18T21:12:50.861Z,4.42
2019-03-18T21:15:19.521Z,4.39
2019-03-18T21:17:48.135Z,4.44
2019-03-18T21:20:17.952Z,4.43
2019-03-18T21:22:46.478Z,4.45
2019-03-18T21:25:15.098Z,4.42
2019-03-18T21:27:43.566Z,4.37
2019-03-18T21:30:20.430Z,4.38
2019-03-18T21:32:49.500Z,4.42
2019-03-18T21:35:19.969Z,4.35
2019-03-18T21:37:48.452Z,4.32
2019-03-18T21:40:22.881Z,4.30
2019-03-18T21:42:51.446Z,4.26
2019-03-18T21:45:23.340Z,4.24
2019-03-18T21:47:51.639Z,4.28
2019-03-18T21:50:20.335Z,4.24
2019-03-18T21:52:48.883Z,4.25
2019-03-18T21:55:17.790Z,4.29
2019-03-18T21:57:46.350Z,4.29
2019-03-18T22:00:20.916Z,4.26
2019-03-18T22:02:49.376Z,4.24
2019-03-18T22:05:18.012Z,4.24
2019-03-18T22:07:46.572Z,4.29
2019-03-18T22:10:19.107Z,4.34
2019-03-18T22:12:50.474Z,4.39
2019-03-18T22:15:19.209Z,4.50
2019-03-18T22:17:47.695Z,4.54
2019-03-18T22:20:17.119Z,4.50
2019-03-18T22:22:45.831Z,4.58
2019-03-18T22:25:15.334Z,4.49
2019-03-18T22:27:43.943Z,4.51
2019-03-18T22:30:18.185Z,4.53
2019-03-18T22:32:46.965Z,4.55
2019-03-18T22:35:15.447Z,4.48
2019-03-18T22:37:44.422Z,4.50
2019-03-18T22:40:16.672Z,4.44
2019-03-18T22:42:45.153Z,4.34
2019-03-18T22:45:18.781Z,4.40
2019-03-18T22:47:49.940Z,4.28
2019-03-18T22:50:20.211Z,4.28
2019-03-18T22:52:48.908Z,4.32
2019-03-18T22:55:17.633Z,4.27
2019-03-18T22:57:46.706Z,4.28
2019-03-18T23:00:23.262Z,4.32
2019-03-18T23:02:53.919Z,4.32
2019-03-18T23:05:22.727Z,4.32
2019-03-18T23:07:51.468Z,4.32
2019-03-18T23:10:20.269Z,4.31
2019-03-18T23:12:50.931Z,4.36
2019-03-18T23:15:19.546Z,4.35
2019-03-18T23:17:48.154Z,4.36
2019-03-18T23:20:16.865Z,4.37
2019-03-18T23:22:45.880Z,4.42
2019-03-18T23:25:14.577Z,4.46
2019-03-18T23:27:43.429Z,4.48
2019-03-18T23:30:16.424Z,4.53
2019-03-18T23:32:45.858Z,4.50
2019-03-18T23:35:15.130Z,4.48
2019-03-18T23:37:43.898Z,4.46
2019-03-18T23:40:16.312Z,4.49
2019-03-18T23:42:45.000Z,4.47
2019-03-18T23:45:14.129Z,4.33
2019-03-18T23:47:43.241Z,4.38
2019-03-18T23:50:13.356Z,4.23
2019-03-18T23:52:42.247Z,4.18
2019-03-18T23:55:19.148Z,4.14
2019-03-18T23:57:42.375Z,4.14
